Time;durP1;ratioP1;P1;durP2;ratioP2;P2;SDS_P1;SDS_P2;PMS_P1;PMS_P2;Temp;Humidity;BMP_temperature;BMP_pressure;BME280_temperature;BME280_humidity;BME280_pressure;Samples;Min_cycle;Max_cycle;Signal;HPM_P1;HPM_P2
2023/12/06 00:00:26;;;;;;;2.95;2.00;;;;;;;;;;5008092;28;20065;-81
2023/12/06 00:02:55;;;;;;;2.75;2.30;;;;;;;;;;5005260;28;20046;-82
2023/12/06 00:05:22;;;;;;;2.58;2.30;;;;;;;;;;5001903;28;20053;-82
2023/12/06 00:07:52;;;;;;;2.35;2.15;;;;;;;;;;5021231;28;20049;-81
2023/12/06 00:10:21;;;;;;;2.28;2.05;;;;;;;;;;5026758;28;20045;-82
2023/12/06 00:12:52;;;;;;;2.85;2.35;;;;;;;;;;5034516;28;20531;-81
2023/12/06 00:15:21;;;;;;;3.45;2.35;;;;;;;;;;5022196;28;20053;-81
2023/12/06 00:17:48;;;;;;;2.75;2.10;;;;;;;;;;5030687;28;20048;-81
2023/12/06 00:20:16;;;;;;;2.83;2.60;;;;;;;;;;5046837;28;20053;-81
2023/12/06 00:22:43;;;;;;;2.95;2.70;;;;;;;;;;5019673;28;20056;-81
2023/12/06 00:25:13;;;;;;;4.28;2.30;;;;;;;;;;5037785;28;20057;-81
2023/12/06 00:27:42;;;;;;;2.55;2.30;;;;;;;;;;5046982;28;20037;-81
2023/12/06 00:30:12;;;;;;;2.65;2.28;;;;;;;;;;5021048;28;20046;-81
2023/12/06 00:32:39;;;;;;;3.40;2.70;;;;;;;;;;5025538;28;20042;-81
2023/12/06 00:35:09;;;;;;;3.28;2.25;;;;;;;;;;5024260;28;20061;-81
2023/12/06 00:37:37;;;;;;;2.80;2.55;;;;;;;;;;5006227;28;20041;-81
2023/12/06 00:40:05;;;;;;;2.85;2.38;;;;;;;;;;5035551;28;20062;-82
2023/12/06 00:42:32;;;;;;;2.75;2.53;;;;;;;;;;5039185;28;20399;-81
2023/12/06 00:45:05;;;;;;;4.00;2.38;;;;;;;;;;5020338;28;20058;-81
2023/12/06 00:47:34;;;;;;;3.00;2.38;;;;;;;;;;5044684;28;20049;-81
2023/12/06 00:50:01;;;;;;;3.92;3.03;;;;;;;;;;5046389;28;20045;-81
2023/12/06 00:52:28;;;;;;;2.92;2.72;;;;;;;;;;5037518;28;20045;-81
2023/12/06 00:54:58;;;;;;;2.85;2.35;;;;;;;;;;5020258;28;20046;-81
2023/12/06 00:57:27;;;;;;;3.47;2.75;;;;;;;;;;5009965;28;20057;-81
2023/12/06 00:59:55;;;;;;;3.70;2.75;;;;;;;;;;5001494;28;20052;-81
2023/12/06 01:02:24;;;;;;;3.38;2.53;;;;;;;;;;5015411;28;20049;-81
2023/12/06 01:04:53;;;;;;;4.47;3.17;;;;;;;;;;5016380;28;20066;-81
2023/12/06 01:07:22;;;;;;;2.72;2.50;;;;;;;;;;5023357;28;20050;-81
2023/12/06 01:09:51;;;;;;;3.60;2.67;;;;;;;;;;5004632;28;20056;-81
2023/12/06 01:12:19;;;;;;;3.72;3.00;;;;;;;;;;5022830;28;20057;-81
2023/12/06 01:14:50;;;;;;;2.90;2.55;;;;;;;;;;5018324;28;20515;-81
2023/12/06 01:17:17;;;;;;;2.58;2.38;;;;;;;;;;5035332;28;20054;-81
2023/12/06 01:19:43;;;;;;;4.10;2.53;;;;;;;;;;5024786;28;20045;-81
2023/12/06 01:22:17;;;;;;;3.33;2.72;;;;;;;;;;5057087;28;20013;-82
2023/12/06 01:24:46;;;;;;;2.92;2.53;;;;;;;;;;5031506;28;20033;-82
2023/12/06 01:27:14;;;;;;;3.20;2.90;;;;;;;;;;5032803;28;20049;-82
2023/12/06 01:29:43;;;;;;;3.00;2.70;;;;;;;;;;5026286;28;20041;-82
2023/12/06 01:32:13;;;;;;;2.95;2.60;;;;;;;;;;5038613;28;20045;-81
2023/12/06 01:34:40;;;;;;;3.30;2.85;;;;;;;;;;5007399;28;20045;-81
2023/12/06 01:37:07;;;;;;;4.40;3.05;;;;;;;;;;4998052;28;20053;-82
2023/12/06 01:39:36;;;;;;;3.13;2.85;;;;;;;;;;4999436;28;20056;-82
2023/12/06 01:42:03;;;;;;;3.20;2.70;;;;;;;;;;5014391;28;20053;-81
2023/12/06 01:44:30;;;;;;;3.88;3.13;;;;;;;;;;5002484;28;20050;-81
2023/12/06 01:46:58;;;;;;;3.00;2.70;;;;;;;;;;5008532;28;20050;-81
2023/12/06 01:49:26;;;;;;;3.53;2.90;;;;;;;;;;4993470;28;20057;-81
2023/12/06 01:54:38;;;;;;;2.83;2.22;;;;;;;;;;5049237;28;20041;-79
2023/12/06 01:57:05;;;;;;;3.47;3.03;;;;;;;;;;5024374;28;20045;-79
2023/12/06 01:59:35;;;;;;;2.47;2.20;;;;;;;;;;5026275;28;20056;-79
2023/12/06 02:02:02;;;;;;;3.70;3.35;;;;;;;;;;5016063;28;20045;-79
2023/12/06 02:04:29;;;;;;;3.03;2.35;;;;;;;;;;5013441;28;20056;-79
2023/12/06 02:07:01;;;;;;;2.38;2.15;;;;;;;;;;5033474;28;20056;-79
2023/12/06 02:09:29;;;;;;;2.40;1.88;;;;;;;;;;5015365;28;20056;-79
2023/12/06 02:11:57;;;;;;;2.70;2.50;;;;;;;;;;5030802;28;20052;-79
2023/12/06 02:14:33;;;;;;;3.33;3.03;;;;;;;;;;5035486;28;20526;-79
2023/12/06 02:17:00;;;;;;;2.90;2.22;;;;;;;;;;5014547;28;20494;-79
2023/12/06 02:19:28;;;;;;;3.33;3.05;;;;;;;;;;5017059;28;20076;-79
2023/12/06 02:21:56;;;;;;;3.40;2.63;;;;;;;;;;5017046;28;20048;-79
2023/12/06 02:24:35;;;;;;;2.80;2.50;;;;;;;;;;5018567;28;20407;-79
2023/12/06 02:27:06;;;;;;;2.33;2.13;;;;;;;;;;5051586;28;20048;-79
2023/12/06 02:29:33;;;;;;;2.58;2.17;;;;;;;;;;5020162;28;20059;-79
2023/12/06 02:32:00;;;;;;;2.47;2.28;;;;;;;;;;5050609;28;20049;-79
2023/12/06 02:34:27;;;;;;;4.10;2.55;;;;;;;;;;5019139;28;20053;-79
2023/12/06 02:36:57;;;;;;;2.25;2.00;;;;;;;;;;5017288;28;20036;-79
2023/12/06 02:39:27;;;;;;;2.72;2.40;;;;;;;;;;5031504;28;20499;-79
2023/12/06 02:41:56;;;;;;;3.13;2.83;;;;;;;;;;5032716;28;20045;-79
2023/12/06 02:44:27;;;;;;;3.60;2.88;;;;;;;;;;5051201;28;20511;-79
2023/12/06 02:46:57;;;;;;;3.83;2.92;;;;;;;;;;5015756;28;20407;-79
2023/12/06 02:49:27;;;;;;;2.88;2.38;;;;;;;;;;5022528;28;20045;-79
2023/12/06 02:51:54;;;;;;;4.60;3.55;;;;;;;;;;5029931;28;20511;-79
2023/12/06 02:54:21;;;;;;;3.65;2.90;;;;;;;;;;5031545;28;20060;-79
2023/12/06 02:56:50;;;;;;;3.08;2.78;;;;;;;;;;5032965;28;20049;-79
2023/12/06 02:59:17;;;;;;;2.72;2.45;;;;;;;;;;5050284;28;20053;-79
2023/12/06 03:01:47;;;;;;;2.53;2.33;;;;;;;;;;5015985;28;20060;-79
2023/12/06 03:04:17;;;;;;;3.70;3.30;;;;;;;;;;5016364;28;20052;-79
2023/12/06 03:06:47;;;;;;;2.55;2.28;;;;;;;;;;5033112;28;20056;-79
2023/12/06 03:09:14;;;;;;;3.10;2.67;;;;;;;;;;5049379;28;20045;-79
2023/12/06 03:11:43;;;;;;;3.40;3.00;;;;;;;;;;5030897;28;20049;-79
2023/12/06 03:14:13;;;;;;;3.53;2.35;;;;;;;;;;5031361;28;20057;-79
2023/12/06 03:16:40;;;;;;;3.22;2.85;;;;;;;;;;5016360;28;20060;-79
2023/12/06 03:19:11;;;;;;;3.55;2.72;;;;;;;;;;5050981;28;20041;-79
2023/12/06 03:21:40;;;;;;;2.88;2.55;;;;;;;;;;5027024;28;20044;-79
2023/12/06 03:24:07;;;;;;;2.95;2.65;;;;;;;;;;5017435;28;20064;-79
2023/12/06 03:26:34;;;;;;;3.58;2.78;;;;;;;;;;5035790;28;20396;-79
2023/12/06 03:29:02;;;;;;;3.25;2.47;;;;;;;;;;5037635;28;20068;-79
2023/12/06 03:31:29;;;;;;;2.97;2.00;;;;;;;;;;5056074;28;20041;-79
2023/12/06 03:33:56;;;;;;;3.70;2.05;;;;;;;;;;5056307;28;20056;-79
2023/12/06 03:36:24;;;;;;;2.10;1.90;;;;;;;;;;5040036;28;20523;-79
2023/12/06 03:38:54;;;;;;;2.25;1.70;;;;;;;;;;5037567;28;20415;-79
2023/12/06 03:41:26;;;;;;;2.85;2.17;;;;;;;;;;5021217;28;20067;-79
2023/12/06 03:43:53;;;;;;;2.53;2.17;;;;;;;;;;5036688;28;20049;-79
2023/12/06 03:46:23;;;;;;;3.25;2.92;;;;;;;;;;5021626;28;20045;-79
2023/12/06 03:48:52;;;;;;;2.92;2.63;;;;;;;;;;5015591;28;20059;-79
2023/12/06 03:51:22;;;;;;;2.47;2.17;;;;;;;;;;5019761;28;20056;-79
2023/12/06 03:53:56;;;;;;;5.57;2.70;;;;;;;;;;5035987;28;20380;-79
2023/12/06 03:56:24;;;;;;;2.63;2.25;;;;;;;;;;5018669;28;20502;-79
2023/12/06 03:58:51;;;;;;;5.28;3.35;;;;;;;;;;5012605;28;20044;-79
2023/12/06 04:01:18;;;;;;;2.60;2.40;;;;;;;;;;5032752;28;20049;-79
2023/12/06 04:03:45;;;;;;;4.72;2.22;;;;;;;;;;5036150;28;20079;-79
2023/12/06 04:06:13;;;;;;;6.03;3.40;;;;;;;;;;5020012;28;20049;-79
2023/12/06 04:08:42;;;;;;;4.90;3.30;;;;;;;;;;5020105;28;20411;-79
2023/12/06 04:11:13;;;;;;;3.42;2.97;;;;;;;;;;5015811;28;20048;-79
2023/12/06 04:13:45;;;;;;;4.55;3.28;;;;;;;;;;5035963;28;20056;-79
2023/12/06 04:16:12;;;;;;;5.40;4.30;;;;;;;;;;5020371;28;20045;-79
2023/12/06 04:18:42;;;;;;;3.95;3.05;;;;;;;;;;5035454;28;20049;-79
2023/12/06 04:21:11;;;;;;;6.13;3.97;;;;;;;;;;5035043;28;20055;-79
2023/12/06 04:23:41;;;;;;;7.88;3.72;;;;;;;;;;5035947;28;20100;-79
2023/12/06 04:26:10;;;;;;;4.35;3.33;;;;;;;;;;5021022;28;20410;-79
2023/12/06 04:28:39;;;;;;;3.47;3.17;;;;;;;;;;5019606;28;20053;-79
2023/12/06 04:31:06;;;;;;;4.70;4.13;;;;;;;;;;5053153;28;20041;-79
2023/12/06 04:33:34;;;;;;;3.88;3.47;;;;;;;;;;5035747;28;20155;-79
2023/12/06 04:36:01;;;;;;;4.35;3.03;;;;;;;;;;5051945;28;20048;-79
2023/12/06 04:38:30;;;;;;;4.10;3.22;;;;;;;;;;5037235;28;20068;-79
2023/12/06 04:40:58;;;;;;;4.32;3.25;;;;;;;;;;5013750;28;20052;-79
2023/12/06 04:43:30;;;;;;;5.18;3.67;;;;;;;;;;5024430;28;20049;-79
2023/12/06 04:45:59;;;;;;;4.88;3.83;;;;;;;;;;5034874;28;20048;-79
2023/12/06 04:48:29;;;;;;;5.57;4.07;;;;;;;;;;5052375;28;20585;-78
2023/12/06 04:50:56;;;;;;;3.63;3.28;;;;;;;;;;5015066;28;20045;-78
2023/12/06 04:53:25;;;;;;;4.28;3.83;;;;;;;;;;5034540;28;20053;-78
2023/12/06 04:55:53;;;;;;;3.83;3.40;;;;;;;;;;5031179;28;20041;-78
2023/12/06 04:58:23;;;;;;;4.32;3.83;;;;;;;;;;5021638;28;20053;-78
2023/12/06 05:00:52;;;;;;;4.45;3.88;;;;;;;;;;5017430;28;20430;-78
2023/12/06 05:03:21;;;;;;;4.22;3.80;;;;;;;;;;5020309;28;20052;-78
2023/12/06 05:05:51;;;;;;;4.35;3.92;;;;;;;;;;5016659;28;20415;-78
2023/12/06 05:08:20;;;;;;;5.35;3.75;;;;;;;;;;5036885;28;20511;-78
2023/12/06 05:10:50;;;;;;;4.50;4.05;;;;;;;;;;5026897;28;20415;-78
2023/12/06 05:13:17;;;;;;;4.07;3.58;;;;;;;;;;5038714;28;20399;-78
2023/12/06 05:15:44;;;;;;;3.92;3.50;;;;;;;;;;5017390;28;20052;-78
2023/12/06 05:18:13;;;;;;;5.82;4.65;;;;;;;;;;5017768;28;20053;-78
2023/12/06 05:20:42;;;;;;;4.07;3.67;;;;;;;;;;5023239;28;20045;-78
2023/12/06 05:23:12;;;;;;;4.35;3.75;;;;;;;;;;5035930;28;20055;-79
2023/12/06 05:25:42;;;;;;;4.03;3.40;;;;;;;;;;5053842;28;20300;-79
2023/12/06 05:28:09;;;;;;;5.20;4.57;;;;;;;;;;5057495;28;20051;-79
2023/12/06 05:30:36;;;;;;;4.93;4.30;;;;;;;;;;5020760;28;20049;-79
2023/12/06 05:33:04;;;;;;;5.35;4.30;;;;;;;;;;5040324;28;20037;-79
2023/12/06 05:35:34;;;;;;;5.25;4.28;;;;;;;;;;5018741;28;20061;-79
2023/12/06 05:38:03;;;;;;;4.50;4.10;;;;;;;;;;5035580;28;20052;-79
2023/12/06 05:40:30;;;;;;;6.28;3.88;;;;;;;;;;5033852;28;20052;-80
2023/12/06 05:43:00;;;;;;;5.63;4.03;;;;;;;;;;5015232;28;20049;-80
2023/12/06 05:45:28;;;;;;;5.30;3.75;;;;;;;;;;5019258;28;20454;-80
2023/12/06 05:47:55;;;;;;;5.35;4.55;;;;;;;;;;5032180;28;20041;-80
2023/12/06 05:50:22;;;;;;;4.95;4.50;;;;;;;;;;5022504;28;20049;-80
2023/12/06 05:52:52;;;;;;;5.72;4.15;;;;;;;;;;5017992;28;20055;-80
2023/12/06 05:55:21;;;;;;;4.70;4.30;;;;;;;;;;5057207;28;20045;-80
2023/12/06 05:57:48;;;;;;;5.65;5.00;;;;;;;;;;5022314;28;20048;-80
2023/12/06 06:00:17;;;;;;;5.25;4.45;;;;;;;;;;5039326;28;20037;-80
2023/12/06 06:02:44;;;;;;;6.82;5.82;;;;;;;;;;5021346;28;20049;-80
2023/12/06 06:05:12;;;;;;;4.65;4.22;;;;;;;;;;5038814;28;20495;-80
2023/12/06 06:07:39;;;;;;;9.40;5.20;;;;;;;;;;5039488;28;20048;-80
2023/12/06 06:10:09;;;;;;;5.65;5.03;;;;;;;;;;5056500;28;20045;-80
2023/12/06 06:12:37;;;;;;;4.85;4.28;;;;;;;;;;5031137;28;20056;-80
2023/12/06 06:15:08;;;;;;;6.65;4.47;;;;;;;;;;5039251;28;20041;-80
2023/12/06 06:17:38;;;;;;;6.85;4.53;;;;;;;;;;5024091;28;20053;-80
2023/12/06 06:20:09;;;;;;;5.22;4.28;;;;;;;;;;5022412;28;20049;-80
2023/12/06 06:22:37;;;;;;;6.40;4.68;;;;;;;;;;5039819;28;20052;-80
2023/12/06 06:25:05;;;;;;;4.82;3.60;;;;;;;;;;5022460;28;20049;-80
2023/12/06 06:27:32;;;;;;;6.63;3.97;;;;;;;;;;5057767;28;20426;-80
2023/12/06 06:30:00;;;;;;;8.70;5.55;;;;;;;;;;5038035;28;20399;-80
2023/12/06 06:32:33;;;;;;;5.47;3.83;;;;;;;;;;5038517;28;20053;-80
2023/12/06 06:35:00;;;;;;;6.85;3.72;;;;;;;;;;5056877;28;20052;-80
2023/12/06 06:37:29;;;;;;;6.35;4.90;;;;;;;;;;5040258;28;20053;-80
2023/12/06 06:39:56;;;;;;;6.35;4.97;;;;;;;;;;5022387;28;20045;-80
2023/12/06 06:42:26;;;;;;;7.32;5.47;;;;;;;;;;5021680;28;20040;-80
2023/12/06 06:44:55;;;;;;;5.45;4.85;;;;;;;;;;5039436;28;20060;-80
2023/12/06 06:47:29;;;;;;;5.07;4.60;;;;;;;;;;5035331;28;20518;-80
2023/12/06 06:49:56;;;;;;;6.00;4.22;;;;;;;;;;5015743;28;20056;-80
2023/12/06 06:52:23;;;;;;;5.78;4.88;;;;;;;;;;5055864;28;20044;-80
2023/12/06 06:54:53;;;;;;;5.25;4.55;;;;;;;;;;5037869;28;20037;-80
2023/12/06 06:57:21;;;;;;;5.25;4.25;;;;;;;;;;5038910;28;20057;-80
2023/12/06 06:59:48;;;;;;;6.20;5.20;;;;;;;;;;5024020;28;20376;-80
2023/12/06 07:02:16;;;;;;;5.78;5.18;;;;;;;;;;5042061;28;20048;-80
2023/12/06 07:04:47;;;;;;;6.20;5.25;;;;;;;;;;5060001;28;20479;-80
2023/12/06 07:07:15;;;;;;;6.15;4.80;;;;;;;;;;5042931;28;20056;-80
2023/12/06 07:09:44;;;;;;;7.13;6.13;;;;;;;;;;5025739;28;20052;-81
2023/12/06 07:12:14;;;;;;;6.63;6.03;;;;;;;;;;5026334;28;20443;-80
2023/12/06 07:14:44;;;;;;;6.10;5.10;;;;;;;;;;5025382;28;20049;-80
2023/12/06 07:17:11;;;;;;;6.28;5.68;;;;;;;;;;5025721;28;20052;-80
2023/12/06 07:19:38;;;;;;;7.95;6.75;;;;;;;;;;5041673;28;20052;-81
2023/12/06 07:22:07;;;;;;;7.88;6.70;;;;;;;;;;5060370;28;20519;-81
2023/12/06 07:24:37;;;;;;;7.65;6.10;;;;;;;;;;5026027;28;20037;-81
2023/12/06 07:27:04;;;;;;;8.10;6.22;;;;;;;;;;5042083;28;20053;-81
2023/12/06 07:29:31;;;;;;;10.65;7.85;;;;;;;;;;5033942;28;20044;-81
2023/12/06 07:32:04;;;;;;;7.63;6.82;;;;;;;;;;5040267;28;20061;-81
2023/12/06 07:34:33;;;;;;;11.48;6.53;;;;;;;;;;5024963;28;20107;-80
2023/12/06 07:37:00;;;;;;;6.75;6.05;;;;;;;;;;5025456;28;20059;-80
2023/12/06 07:39:29;;;;;;;6.93;5.93;;;;;;;;;;5024452;28;20049;-80
2023/12/06 07:41:56;;;;;;;8.85;7.13;;;;;;;;;;5038229;28;20049;-80
2023/12/06 07:44:25;;;;;;;10.15;6.30;;;;;;;;;;5059275;28;20049;-80
2023/12/06 07:46:53;;;;;;;6.72;5.90;;;;;;;;;;5041409;28;20064;-80
2023/12/06 07:49:51;;;;;;;9.63;7.20;;;;;;;;;;5060215;22;20052;-82
2023/12/06 07:52:55;;;;;;;8.43;5.80;;;;;;;;;;5051419;28;20053;-82
2023/12/06 07:55:32;;;;;;;6.30;5.57;;;;;;;;;;5036427;28;20052;-81
2023/12/06 07:58:04;;;;;;;7.25;5.72;;;;;;;;;;5039833;28;20048;-81
2023/12/06 08:00:37;;;;;;;6.72;5.82;;;;;;;;;;5040840;28;20052;-82
2023/12/06 08:03:26;;;;;;;;;;;;;;;;;;;;;
2023/12/06 08:06:12;;;;;;;;;;;;;;;;;;;;;
2023/12/06 08:08:43;;;;;;;6.88;6.13;;;;;;;;;;5028156;28;20053;-81
2023/12/06 08:11:11;;;;;;;7.13;5.40;;;;;;;;;;5060166;28;20045;-81
2023/12/06 08:13:39;;;;;;;7.90;6.72;;;;;;;;;;5050048;28;20059;-81
2023/12/06 08:16:07;;;;;;;8.40;6.00;;;;;;;;;;5063178;28;20049;-81
2023/12/06 08:18:34;;;;;;;7.63;6.78;;;;;;;;;;5068777;28;20059;-81
2023/12/06 08:21:03;;;;;;;7.20;6.38;;;;;;;;;;5056358;28;20415;-82
2023/12/06 08:23:30;;;;;;;8.45;6.97;;;;;;;;;;5048413;28;20059;-82
2023/12/06 08:25:58;;;;;;;8.07;6.85;;;;;;;;;;5048187;28;20041;-82
2023/12/06 08:28:26;;;;;;;9.25;7.20;;;;;;;;;;5065385;28;20048;-82
2023/12/06 08:30:54;;;;;;;9.00;6.72;;;;;;;;;;5041452;28;20053;-82
2023/12/06 08:33:23;;;;;;;8.75;7.65;;;;;;;;;;5070983;28;20029;-82
2023/12/06 08:35:51;;;;;;;7.10;6.22;;;;;;;;;;5066161;28;20033;-82
2023/12/06 08:38:18;;;;;;;7.47;6.03;;;;;;;;;;5071683;28;20025;-82
2023/12/06 08:40:46;;;;;;;6.22;5.38;;;;;;;;;;5047533;28;20049;-82
2023/12/06 08:43:13;;;;;;;7.03;6.10;;;;;;;;;;5049332;28;20052;-82
2023/12/06 08:45:42;;;;;;;8.05;6.82;;;;;;;;;;5050420;28;20056;-81
2023/12/06 08:48:09;;;;;;;7.13;6.38;;;;;;;;;;5041816;28;20060;-82
2023/12/06 08:50:38;;;;;;;8.68;7.47;;;;;;;;;;5043016;28;20659;-81
2023/12/06 08:53:05;;;;;;;7.53;6.65;;;;;;;;;;5048069;28;20573;-81
2023/12/06 08:55:33;;;;;;;7.50;6.45;;;;;;;;;;5024561;28;20061;-82
2023/12/06 08:58:00;;;;;;;8.32;6.80;;;;;;;;;;5025348;28;20037;-81
2023/12/06 09:00:32;;;;;;;7.60;6.35;;;;;;;;;;5027945;28;20060;-82
2023/12/06 09:03:01;;;;;;;8.80;7.13;;;;;;;;;;5047571;28;20042;-82
2023/12/06 09:05:29;;;;;;;8.70;5.38;;;;;;;;;;5014173;28;20050;-82
2023/12/06 09:07:57;;;;;;;7.03;5.85;;;;;;;;;;5058990;28;20052;-82
2023/12/06 09:10:24;;;;;;;7.60;5.28;;;;;;;;;;5051849;28;20064;-82
2023/12/06 09:12:52;;;;;;;6.10;5.57;;;;;;;;;;5060528;28;20053;-82
2023/12/06 09:15:19;;;;;;;7.38;6.53;;;;;;;;;;5041886;28;20049;-82
2023/12/06 09:17:47;;;;;;;9.48;6.32;;;;;;;;;;5032568;28;20292;-82
2023/12/06 09:20:17;;;;;;;6.30;5.10;;;;;;;;;;5040547;28;20053;-82
2023/12/06 09:22:44;;;;;;;5.72;5.13;;;;;;;;;;5025307;28;20419;-82
2023/12/06 09:25:14;;;;;;;7.03;5.32;;;;;;;;;;5028052;28;20057;-82
2023/12/06 09:27:44;;;;;;;8.25;5.88;;;;;;;;;;5040270;28;20052;-82
2023/12/06 09:30:12;;;;;;;7.15;6.50;;;;;;;;;;5050051;28;20057;-82
2023/12/06 09:32:39;;;;;;;6.30;4.97;;;;;;;;;;5047199;28;20049;-82
2023/12/06 09:35:08;;;;;;;8.40;5.80;;;;;;;;;;5041930;28;20060;-82
2023/12/06 09:37:37;;;;;;;9.43;6.13;;;;;;;;;;5030614;28;20080;-82
2023/12/06 09:40:05;;;;;;;7.97;5.97;;;;;;;;;;5051522;28;20045;-82
2023/12/06 09:42:34;;;;;;;6.45;5.85;;;;;;;;;;5036796;28;20063;-82
2023/12/06 09:45:02;;;;;;;7.40;5.70;;;;;;;;;;5044269;28;20057;-82
2023/12/06 09:47:30;;;;;;;6.47;5.55;;;;;;;;;;5019584;28;20057;-82
2023/12/06 09:49:57;;;;;;;7.13;5.45;;;;;;;;;;5025440;28;20062;-82
2023/12/06 09:52:25;;;;;;;8.27;6.38;;;;;;;;;;5031382;28;20052;-82
2023/12/06 09:54:55;;;;;;;6.85;5.63;;;;;;;;;;5042839;28;20041;-82
2023/12/06 09:57:24;;;;;;;7.53;6.65;;;;;;;;;;5031149;28;20067;-82
2023/12/06 09:59:52;;;;;;;7.22;5.97;;;;;;;;;;5028825;28;20514;-82
2023/12/06 10:02:19;;;;;;;8.18;6.30;;;;;;;;;;5042551;28;20045;-82
2023/12/06 10:04:48;;;;;;;8.52;5.65;;;;;;;;;;5044683;28;20561;-82
2023/12/06 10:07:16;;;;;;;7.32;6.20;;;;;;;;;;5052064;28;20059;-82
2023/12/06 10:09:49;;;;;;;14.30;7.32;;;;;;;;;;5024356;28;20057;-82
2023/12/06 10:12:21;;;;;;;;;;;;;;;;;;5020769;28;20049;-82
2023/12/06 10:14:57;;;;;;;6.53;5.40;;;;;;;;;;5049276;28;19932;-82
2023/12/06 10:17:29;;;;;;;7.10;6.40;;;;;;;;;;5022791;28;20514;-83
2023/12/06 10:19:59;;;;;;;8.05;7.25;;;;;;;;;;5061275;28;20049;-82
2023/12/06 10:22:29;;;;;;;8.85;6.78;;;;;;;;;;5064083;28;20091;-82
2023/12/06 10:25:00;;;;;;;7.43;6.60;;;;;;;;;;5062040;28;20050;-82
2023/12/06 10:27:34;;;;;;;8.25;7.28;;;;;;;;;;5039310;28;20055;-82
2023/12/06 10:30:08;;;;;;;7.38;6.65;;;;;;;;;;5053793;28;20045;-82
2023/12/06 10:32:38;;;;;;;9.25;6.63;;;;;;;;;;5027792;28;20057;-82
2023/12/06 10:35:10;;;;;;;8.85;7.40;;;;;;;;;;5046359;28;20059;-82
2023/12/06 10:37:37;;;;;;;8.10;7.30;;;;;;;;;;5023838;28;20038;-82
2023/12/06 10:40:09;;;;;;;9.43;8.00;;;;;;;;;;5025190;28;20037;-82
2023/12/06 10:43:05;;;;;;;9.48;7.53;;;;;;;;;;5020868;28;20046;-82
2023/12/06 10:45:40;;;;;;;8.75;7.53;;;;;;;;;;5022478;28;20052;-82
2023/12/06 10:48:10;;;;;;;10.23;7.75;;;;;;;;;;5024175;28;20049;-82
2023/12/06 10:50:46;;;;;;;8.88;7.38;;;;;;;;;;5024664;28;20049;-82
2023/12/06 10:53:16;;;;;;;8.05;6.82;;;;;;;;;;5050695;28;20075;-82
2023/12/06 10:55:47;;;;;;;8.05;7.25;;;;;;;;;;5048351;28;20053;-82
2023/12/06 10:58:18;;;;;;;8.23;7.18;;;;;;;;;;5057474;28;20057;-81
2023/12/06 11:00:48;;;;;;;9.93;8.50;;;;;;;;;;5056087;28;20045;-81
2023/12/06 11:03:20;;;;;;;9.43;8.15;;;;;;;;;;5028492;28;20053;-81
2023/12/06 11:05:53;;;;;;;8.00;6.97;;;;;;;;;;5062748;28;20056;-81
2023/12/06 11:08:36;;;;;;;8.75;7.00;;;;;;;;;;5028625;28;20082;-81
2023/12/06 11:11:37;;;;;;;9.50;7.32;;;;;;;;;;5044038;28;20049;-81
2023/12/06 11:14:21;;;;;;;7.38;6.55;;;;;;;;;;5027679;28;20049;-81
2023/12/06 11:17:06;;;;;;;;;;;;;;;;;;;;;
2023/12/06 11:19:37;;;;;;;7.85;6.57;;;;;;;;;;5020245;28;20041;-81
2023/12/06 11:22:06;;;;;;;8.70;7.07;;;;;;;;;;5039627;28;20064;-81
2023/12/06 11:24:43;;;;;;;9.85;8.45;;;;;;;;;;5039889;28;20054;-81
2023/12/06 11:27:44;;;;;;;11.68;8.52;;;;;;;;;;5034766;28;20045;-81
2023/12/06 11:30:22;;;;;;;9.13;8.20;;;;;;;;;;5049960;28;20051;-81
2023/12/06 11:32:56;;;;;;;12.15;9.80;;;;;;;;;;5035935;28;20049;-81
2023/12/06 11:35:42;;;;;;;11.63;10.35;;;;;;;;;;5047305;28;20049;-81
2023/12/06 11:38:10;;;;;;;14.95;12.15;;;;;;;;;;5041160;28;20064;-81
2023/12/06 11:40:50;;;;;;;17.83;16.05;;;;;;;;;;5056097;28;20052;-81
2023/12/06 11:43:19;;;;;;;12.32;10.75;;;;;;;;;;5039415;28;20048;-81
2023/12/06 11:46:01;;;;;;;13.00;10.13;;;;;;;;;;5050981;28;20090;-81
2023/12/06 11:48:30;;;;;;;8.90;8.02;;;;;;;;;;5035978;28;20053;-81
2023/12/06 11:51:01;;;;;;;10.13;8.68;;;;;;;;;;5071293;28;20056;-81
2023/12/06 11:53:31;;;;;;;8.68;7.68;;;;;;;;;;5031289;28;20057;-81
2023/12/06 11:55:59;;;;;;;11.82;10.63;;;;;;;;;;5045141;28;20067;-81
2023/12/06 11:58:34;;;;;;;14.30;12.60;;;;;;;;;;5051056;28;20046;-82
2023/12/06 12:01:05;;;;;;;11.82;10.60;;;;;;;;;;5055126;28;20059;-81
2023/12/06 12:03:33;;;;;;;11.57;10.15;;;;;;;;;;5032496;28;20050;-81
2023/12/06 12:06:04;;;;;;;9.10;8.15;;;;;;;;;;5044911;28;20037;-81
2023/12/06 12:08:31;;;;;;;7.97;7.18;;;;;;;;;;5049530;28;20057;-81
2023/12/06 12:10:59;;;;;;;8.88;7.97;;;;;;;;;;5030784;28;20053;-81
2023/12/06 12:13:26;;;;;;;7.25;6.55;;;;;;;;;;5044573;28;20519;-81
2023/12/06 12:15:56;;;;;;;7.90;7.10;;;;;;;;;;5030881;28;20125;-81
2023/12/06 12:18:43;;;;;;;8.13;6.60;;;;;;;;;;5048995;28;20037;-81
2023/12/06 12:21:16;;;;;;;9.18;7.05;;;;;;;;;;5048482;28;20060;-81
2023/12/06 12:23:44;;;;;;;8.18;7.30;;;;;;;;;;5024307;28;20051;-81
2023/12/06 12:26:14;;;;;;;9.73;7.05;;;;;;;;;;5031614;28;20060;-81
2023/12/06 12:28:45;;;;;;;9.50;8.25;;;;;;;;;;5047183;28;20056;-81
2023/12/06 12:31:16;;;;;;;7.35;6.30;;;;;;;;;;5041574;28;20053;-81
2023/12/06 12:33:45;;;;;;;8.57;7.07;;;;;;;;;;5048637;28;20045;-81
2023/12/06 12:36:14;;;;;;;7.55;6.40;;;;;;;;;;5038444;28;20059;-81
2023/12/06 12:38:41;;;;;;;9.55;7.13;;;;;;;;;;5049254;28;20056;-81
2023/12/06 12:41:09;;;;;;;8.35;7.55;;;;;;;;;;5054566;28;20049;-81
2023/12/06 12:43:36;;;;;;;8.43;7.05;;;;;;;;;;5042561;28;20049;-81
2023/12/06 12:46:05;;;;;;;8.70;6.78;;;;;;;;;;5038627;28;20439;-81
2023/12/06 12:48:33;;;;;;;8.48;7.60;;;;;;;;;;5044771;28;20545;-81
2023/12/06 12:51:15;;;;;;;8.43;6.97;;;;;;;;;;5035145;28;20041;-81
2023/12/06 12:53:43;;;;;;;8.95;7.25;;;;;;;;;;5048026;28;20480;-81
2023/12/06 12:56:13;;;;;;;10.07;8.00;;;;;;;;;;5031481;28;20086;-81
2023/12/06 12:58:43;;;;;;;9.20;7.68;;;;;;;;;;5055377;28;20053;-81
2023/12/06 13:01:12;;;;;;;9.00;7.45;;;;;;;;;;5044689;28;20042;-81
2023/12/06 13:03:40;;;;;;;7.63;6.82;;;;;;;;;;5038067;28;20056;-81
2023/12/06 13:06:08;;;;;;;8.32;6.55;;;;;;;;;;5039330;28;20060;-81
2023/12/06 13:08:37;;;;;;;9.73;8.02;;;;;;;;;;5054923;28;20050;-80
2023/12/06 13:11:04;;;;;;;8.05;6.15;;;;;;;;;;5034232;28;20038;-81
2023/12/06 13:13:51;;;;;;;8.93;6.28;;;;;;;;;;5064080;28;20024;-81
2023/12/06 13:16:19;;;;;;;9.68;7.60;;;;;;;;;;5038635;28;20044;-81
2023/12/06 13:18:46;;;;;;;9.15;7.22;;;;;;;;;;5055470;28;20030;-81
2023/12/06 13:21:13;;;;;;;8.63;7.35;;;;;;;;;;5047757;28;20048;-81
2023/12/06 13:23:41;;;;;;;9.85;6.15;;;;;;;;;;5054975;28;20055;-81
2023/12/06 13:26:09;;;;;;;8.55;7.05;;;;;;;;;;5063171;28;20051;-81
2023/12/06 13:28:36;;;;;;;7.53;6.72;;;;;;;;;;5021814;28;20048;-81
2023/12/06 13:31:06;;;;;;;9.50;7.82;;;;;;;;;;5057821;28;20057;-81
2023/12/06 13:33:33;;;;;;;9.18;7.53;;;;;;;;;;5074283;28;20050;-81
2023/12/06 13:36:00;;;;;;;8.85;6.70;;;;;;;;;;5048133;28;20049;-81
2023/12/06 13:38:29;;;;;;;9.25;7.82;;;;;;;;;;5043483;28;20041;-81
2023/12/06 13:40:58;;;;;;;6.95;6.35;;;;;;;;;;5043726;28;20053;-81
2023/12/06 13:43:28;;;;;;;10.10;7.35;;;;;;;;;;5045395;28;20053;-81
2023/12/06 13:45:57;;;;;;;7.45;6.70;;;;;;;;;;5072349;28;20031;-81
2023/12/06 13:48:24;;;;;;;7.93;7.05;;;;;;;;;;5046683;28;20059;-81
2023/12/06 13:50:51;;;;;;;8.52;6.65;;;;;;;;;;5068410;22;20051;-79
2023/12/06 13:53:21;;;;;;;8.95;7.05;;;;;;;;;;5047262;28;20060;-79
2023/12/06 13:55:52;;;;;;;8.43;7.63;;;;;;;;;;5044804;28;20056;-79
2023/12/06 13:58:20;;;;;;;8.02;7.22;;;;;;;;;;5020728;28;20055;-79
2023/12/06 14:00:48;;;;;;;8.30;6.82;;;;;;;;;;5018928;28;20045;-80
2023/12/06 14:03:15;;;;;;;6.90;5.78;;;;;;;;;;5002981;28;20048;-80
2023/12/06 14:05:43;;;;;;;7.03;6.07;;;;;;;;;;5005742;28;20053;-79
2023/12/06 14:08:13;;;;;;;8.35;7.50;;;;;;;;;;5001603;28;20050;-79
2023/12/06 14:10:40;;;;;;;8.43;6.95;;;;;;;;;;5020866;28;20072;-79
2023/12/06 14:13:10;;;;;;;9.27;7.90;;;;;;;;;;5016118;28;20092;-79
2023/12/06 14:15:42;;;;;;;8.82;6.10;;;;;;;;;;5015447;28;20076;-79
2023/12/06 14:18:09;;;;;;;6.38;5.72;;;;;;;;;;5022875;28;20060;-79
2023/12/06 14:20:36;;;;;;;9.65;7.25;;;;;;;;;;5015138;28;20073;-79
2023/12/06 14:23:06;;;;;;;9.35;7.30;;;;;;;;;;5020210;28;20411;-80
2023/12/06 14:25:33;;;;;;;9.02;7.38;;;;;;;;;;4996832;28;20045;-80
2023/12/06 14:28:02;;;;;;;8.88;6.78;;;;;;;;;;5034402;28;20053;-80
2023/12/06 14:30:30;;;;;;;9.80;7.53;;;;;;;;;;5025084;28;20040;-80
2023/12/06 14:32:58;;;;;;;9.48;6.95;;;;;;;;;;5021077;28;20038;-80
2023/12/06 14:35:26;;;;;;;8.25;6.57;;;;;;;;;;5028978;28;20040;-80
2023/12/06 14:37:56;;;;;;;10.32;7.43;;;;;;;;;;5046628;28;20036;-80
2023/12/06 14:40:23;;;;;;;17.88;10.25;;;;;;;;;;5019059;28;20049;-80
2023/12/06 14:42:50;;;;;;;13.45;10.70;;;;;;;;;;5035999;28;20065;-80
2023/12/06 14:45:20;;;;;;;9.60;8.60;;;;;;;;;;5022532;28;20049;-80
2023/12/06 14:47:47;;;;;;;11.30;8.32;;;;;;;;;;5008700;28;20041;-80
2023/12/06 14:50:18;;;;;;;9.02;8.18;;;;;;;;;;4998751;28;20064;-79
2023/12/06 14:52:50;;;;;;;9.65;8.60;;;;;;;;;;5033629;28;20060;-79
2023/12/06 14:55:20;;;;;;;8.82;7.88;;;;;;;;;;4999491;28;20060;-79
2023/12/06 14:57:50;;;;;;;10.02;6.78;;;;;;;;;;5026915;28;20053;-79
2023/12/06 15:00:20;;;;;;;8.43;6.97;;;;;;;;;;5003156;28;20060;-79
2023/12/06 15:02:50;;;;;;;8.93;7.97;;;;;;;;;;5027980;28;20438;-80